sensor_id;sensor_type;location;lat;lon;timestamp;P1;durP1;ratioP1;P2;durP2;ratioP2
74293;SDS011;64044;59.904;10.738;2023-02-07T00:00:03;23.98;;;8.63;;
74293;SDS011;64044;59.904;10.738;2023-02-07T00:02:31;32.42;;;9.52;;
74293;SDS011;64044;59.904;10.738;2023-02-07T00:04:57;28.85;;;9.05;;
74293;SDS011;64044;59.904;10.738;2023-02-07T00:07:23;37.63;;;12.55;;
74293;SDS011;64044;59.904;10.738;2023-02-07T00:09:49;40.50;;;13.30;;
74293;SDS011;64044;59.904;10.738;2023-02-07T00:12:15;43.30;;;14.75;;
74293;SDS011;64044;59.904;10.738;2023-02-07T00:14:41;46.20;;;16.15;;
74293;SDS011;64044;59.904;10.738;2023-02-07T00:17:06;30.05;;;11.48;;
74293;SDS011;64044;59.904;10.738;2023-02-07T00:19:32;44.65;;;13.30;;
74293;SDS011;64044;59.904;10.738;2023-02-07T00:21:58;44.28;;;13.98;;
74293;SDS011;64044;59.904;10.738;2023-02-07T00:24:24;34.58;;;12.73;;
74293;SDS011;64044;59.904;10.738;2023-02-07T00:26:50;40.13;;;12.77;;
74293;SDS011;64044;59.904;10.738;2023-02-07T00:29:17;37.78;;;11.88;;
74293;SDS011;64044;59.904;10.738;2023-02-07T00:31:43;42.75;;;12.10;;
74293;SDS011;64044;59.904;10.738;2023-02-07T00:34:09;38.63;;;12.25;;
74293;SDS011;64044;59.904;10.738;2023-02-07T00:36:36;43.63;;;11.55;;
74293;SDS011;64044;59.904;10.738;2023-02-07T00:39:07;35.55;;;13.95;;
74293;SDS011;64044;59.904;10.738;2023-02-07T00:41:38;38.17;;;10.55;;
74293;SDS011;64044;59.904;10.738;2023-02-07T00:44:04;31.88;;;10.73;;
74293;SDS011;64044;59.904;10.738;2023-02-07T00:46:30;36.50;;;10.07;;
74293;SDS011;64044;59.904;10.738;2023-02-07T00:48:57;23.17;;;6.65;;
74293;SDS011;64044;59.904;10.738;2023-02-07T00:51:23;36.22;;;8.07;;
74293;SDS011;64044;59.904;10.738;2023-02-07T00:53:55;23.55;;;6.60;;
74293;SDS011;64044;59.904;10.738;2023-02-07T00:56:22;31.02;;;6.68;;
74293;SDS011;64044;59.904;10.738;2023-02-07T00:58:49;19.80;;;6.70;;
74293;SDS011;64044;59.904;10.738;2023-02-07T01:01:15;26.40;;;7.05;;
74293;SDS011;64044;59.904;10.738;2023-02-07T01:03:41;32.78;;;7.60;;
74293;SDS011;64044;59.904;10.738;2023-02-07T01:06:07;33.83;;;7.85;;
74293;SDS011;64044;59.904;10.738;2023-02-07T01:08:34;32.25;;;7.55;;
74293;SDS011;64044;59.904;10.738;2023-02-07T01:11:03;83.45;;;9.38;;
74293;SDS011;64044;59.904;10.738;2023-02-07T01:13:31;40.97;;;7.00;;
74293;SDS011;64044;59.904;10.738;2023-02-07T01:15:57;31.00;;;6.88;;
74293;SDS011;64044;59.904;10.738;2023-02-07T01:18:23;30.40;;;6.60;;
74293;SDS011;64044;59.904;10.738;2023-02-07T01:20:49;32.58;;;7.20;;
74293;SDS011;64044;59.904;10.738;2023-02-07T01:23:14;37.78;;;7.22;;
74293;SDS011;64044;59.904;10.738;2023-02-07T01:25:40;31.65;;;7.20;;
74293;SDS011;64044;59.904;10.738;2023-02-07T01:28:09;29.65;;;8.07;;
74293;SDS011;64044;59.904;10.738;2023-02-07T01:30:39;31.02;;;7.60;;
74293;SDS011;64044;59.904;10.738;2023-02-07T01:33:07;35.28;;;10.02;;
74293;SDS011;64044;59.904;10.738;2023-02-07T01:35:33;35.22;;;9.77;;
74293;SDS011;64044;59.904;10.738;2023-02-07T01:37:59;29.10;;;9.18;;
74293;SDS011;64044;59.904;10.738;2023-02-07T01:40:27;29.60;;;9.77;;
74293;SDS011;64044;59.904;10.738;2023-02-07T01:42:54;44.65;;;10.02;;
74293;SDS011;64044;59.904;10.738;2023-02-07T01:47:47;36.25;;;8.88;;
74293;SDS011;64044;59.904;10.738;2023-02-07T01:50:14;24.08;;;8.63;;
74293;SDS011;64044;59.904;10.738;2023-02-07T01:52:40;27.15;;;8.88;;
74293;SDS011;64044;59.904;10.738;2023-02-07T01:55:08;37.67;;;9.52;;
74293;SDS011;64044;59.904;10.738;2023-02-07T01:57:38;23.92;;;7.57;;
74293;SDS011;64044;59.904;10.738;2023-02-07T02:00:05;40.35;;;7.20;;
74293;SDS011;64044;59.904;10.738;2023-02-07T02:02:33;29.25;;;7.47;;
74293;SDS011;64044;59.904;10.738;2023-02-07T02:05:00;36.58;;;8.60;;
74293;SDS011;64044;59.904;10.738;2023-02-07T02:07:27;37.00;;;7.63;;
74293;SDS011;64044;59.904;10.738;2023-02-07T02:09:57;23.67;;;7.23;;
74293;SDS011;64044;59.904;10.738;2023-02-07T02:21:33;29.55;;;8.95;;
74293;SDS011;64044;59.904;10.738;2023-02-07T02:30:10;40.33;;;10.43;;
74293;SDS011;64044;59.904;10.738;2023-02-07T02:38:16;24.73;;;8.32;;
74293;SDS011;64044;59.904;10.738;2023-02-07T02:41:05;41.60;;;8.50;;
74293;SDS011;64044;59.904;10.738;2023-02-07T02:44:02;31.73;;;8.75;;
74293;SDS011;64044;59.904;10.738;2023-02-07T02:46:37;23.48;;;8.25;;
74293;SDS011;64044;59.904;10.738;2023-02-07T02:49:06;28.33;;;8.73;;
74293;SDS011;64044;59.904;10.738;2023-02-07T02:51:35;27.10;;;9.05;;
74293;SDS011;64044;59.904;10.738;2023-02-07T02:54:01;27.80;;;9.07;;
74293;SDS011;64044;59.904;10.738;2023-02-07T03:10:46;34.30;;;10.48;;
74293;SDS011;64044;59.904;10.738;2023-02-07T03:19:20;37.67;;;10.90;;
74293;SDS011;64044;59.904;10.738;2023-02-07T03:24:26;37.03;;;9.80;;
74293;SDS011;64044;59.904;10.738;2023-02-07T03:27:04;31.02;;;10.93;;
74293;SDS011;64044;59.904;10.738;2023-02-07T03:29:32;30.23;;;10.05;;
74293;SDS011;64044;59.904;10.738;2023-02-07T03:32:02;53.08;;;10.93;;
74293;SDS011;64044;59.904;10.738;2023-02-07T03:37:31;43.13;;;9.48;;
74293;SDS011;64044;59.904;10.738;2023-02-07T03:40:05;31.75;;;10.55;;
74293;SDS011;64044;59.904;10.738;2023-02-07T03:42:34;25.02;;;9.13;;
74293;SDS011;64044;59.904;10.738;2023-02-07T03:45:01;29.05;;;8.55;;
74293;SDS011;64044;59.904;10.738;2023-02-07T03:47:28;35.90;;;9.70;;
74293;SDS011;64044;59.904;10.738;2023-02-07T03:49:54;27.63;;;9.18;;
74293;SDS011;64044;59.904;10.738;2023-02-07T03:52:19;42.58;;;9.38;;
74293;SDS011;64044;59.904;10.738;2023-02-07T03:54:45;36.55;;;9.55;;
74293;SDS011;64044;59.904;10.738;2023-02-07T03:57:11;36.28;;;9.43;;
74293;SDS011;64044;59.904;10.738;2023-02-07T03:59:37;28.10;;;8.98;;
74293;SDS011;64044;59.904;10.738;2023-02-07T04:02:02;51.80;;;10.82;;
74293;SDS011;64044;59.904;10.738;2023-02-07T04:04:28;37.63;;;9.85;;
74293;SDS011;64044;59.904;10.738;2023-02-07T04:06:54;43.45;;;9.18;;
74293;SDS011;64044;59.904;10.738;2023-02-07T04:09:20;31.58;;;8.38;;
74293;SDS011;64044;59.904;10.738;2023-02-07T04:11:49;40.97;;;9.23;;
74293;SDS011;64044;59.904;10.738;2023-02-07T04:14:15;28.17;;;9.23;;
74293;SDS011;64044;59.904;10.738;2023-02-07T04:16:44;27.80;;;8.75;;
74293;SDS011;64044;59.904;10.738;2023-02-07T04:19:10;31.48;;;8.93;;
74293;SDS011;64044;59.904;10.738;2023-02-07T04:21:36;30.10;;;8.57;;
74293;SDS011;64044;59.904;10.738;2023-02-07T04:24:01;49.40;;;10.07;;
74293;SDS011;64044;59.904;10.738;2023-02-07T04:26:27;39.58;;;9.20;;
74293;SDS011;64044;59.904;10.738;2023-02-07T04:28:53;30.45;;;8.77;;
74293;SDS011;64044;59.904;10.738;2023-02-07T04:31:18;26.58;;;8.00;;
74293;SDS011;64044;59.904;10.738;2023-02-07T04:33:44;25.80;;;8.95;;
74293;SDS011;64044;59.904;10.738;2023-02-07T04:36:10;32.83;;;8.15;;
74293;SDS011;64044;59.904;10.738;2023-02-07T04:38:35;43.10;;;9.02;;
74293;SDS011;64044;59.904;10.738;2023-02-07T04:41:02;37.35;;;8.45;;
74293;SDS011;64044;59.904;10.738;2023-02-07T04:43:29;30.65;;;9.18;;
74293;SDS011;64044;59.904;10.738;2023-02-07T04:45:56;40.80;;;8.38;;
74293;SDS011;64044;59.904;10.738;2023-02-07T04:48:22;24.17;;;8.88;;
74293;SDS011;64044;59.904;10.738;2023-02-07T04:50:48;36.97;;;9.18;;
74293;SDS011;64044;59.904;10.738;2023-02-07T04:53:14;67.15;;;8.88;;
74293;SDS011;64044;59.904;10.738;2023-02-07T04:55:40;46.60;;;9.13;;
74293;SDS011;64044;59.904;10.738;2023-02-07T04:58:06;39.67;;;8.52;;
74293;SDS011;64044;59.904;10.738;2023-02-07T05:00:32;40.72;;;8.90;;
74293;SDS011;64044;59.904;10.738;2023-02-07T05:02:58;35.00;;;9.02;;
74293;SDS011;64044;59.904;10.738;2023-02-07T05:05:24;33.15;;;7.93;;
74293;SDS011;64044;59.904;10.738;2023-02-07T05:07:51;25.67;;;8.80;;
74293;SDS011;64044;59.904;10.738;2023-02-07T05:10:16;29.25;;;8.18;;
74293;SDS011;64044;59.904;10.738;2023-02-07T05:12:42;26.75;;;8.55;;
74293;SDS011;64044;59.904;10.738;2023-02-07T05:15:08;36.38;;;9.45;;
74293;SDS011;64044;59.904;10.738;2023-02-07T05:17:34;26.88;;;8.25;;
74293;SDS011;64044;59.904;10.738;2023-02-07T05:20:00;29.65;;;8.93;;
74293;SDS011;64044;59.904;10.738;2023-02-07T05:22:26;26.92;;;8.18;;
74293;SDS011;64044;59.904;10.738;2023-02-07T05:24:52;29.60;;;8.77;;
74293;SDS011;64044;59.904;10.738;2023-02-07T05:27:18;23.08;;;9.02;;
74293;SDS011;64044;59.904;10.738;2023-02-07T05:29:43;23.58;;;8.52;;
74293;SDS011;64044;59.904;10.738;2023-02-07T05:32:13;19.75;;;9.48;;
74293;SDS011;64044;59.904;10.738;2023-02-07T05:34:57;20.23;;;9.60;;
74293;SDS011;64044;59.904;10.738;2023-02-07T05:37:23;23.85;;;9.15;;
74293;SDS011;64044;59.904;10.738;2023-02-07T05:39:50;22.90;;;8.57;;
74293;SDS011;64044;59.904;10.738;2023-02-07T05:42:15;22.38;;;9.75;;
74293;SDS011;64044;59.904;10.738;2023-02-07T05:44:41;22.83;;;8.48;;
74293;SDS011;64044;59.904;10.738;2023-02-07T05:47:07;22.75;;;8.95;;
74293;SDS011;64044;59.904;10.738;2023-02-07T05:49:32;22.08;;;8.63;;
74293;SDS011;64044;59.904;10.738;2023-02-07T05:51:58;21.98;;;9.48;;
74293;SDS011;64044;59.904;10.738;2023-02-07T05:54:24;26.05;;;10.18;;
74293;SDS011;64044;59.904;10.738;2023-02-07T05:56:50;20.45;;;9.32;;
74293;SDS011;64044;59.904;10.738;2023-02-07T05:59:16;24.23;;;9.85;;
74293;SDS011;64044;59.904;10.738;2023-02-07T06:01:41;20.38;;;9.05;;
74293;SDS011;64044;59.904;10.738;2023-02-07T06:04:07;24.20;;;9.30;;
74293;SDS011;64044;59.904;10.738;2023-02-07T06:06:33;21.42;;;9.48;;
74293;SDS011;64044;59.904;10.738;2023-02-07T06:08:58;28.73;;;10.18;;
74293;SDS011;64044;59.904;10.738;2023-02-07T06:11:24;41.83;;;10.00;;
74293;SDS011;64044;59.904;10.738;2023-02-07T06:13:50;35.88;;;10.52;;
74293;SDS011;64044;59.904;10.738;2023-02-07T06:16:16;50.72;;;9.77;;
74293;SDS011;64044;59.904;10.738;2023-02-07T06:18:41;28.98;;;10.18;;
74293;SDS011;64044;59.904;10.738;2023-02-07T06:21:07;33.75;;;10.48;;
74293;SDS011;64044;59.904;10.738;2023-02-07T06:23:33;30.15;;;10.45;;
74293;SDS011;64044;59.904;10.738;2023-02-07T06:25:59;38.20;;;9.18;;
74293;SDS011;64044;59.904;10.738;2023-02-07T06:28:24;50.17;;;9.07;;
74293;SDS011;64044;59.904;10.738;2023-02-07T06:30:50;43.17;;;9.30;;
74293;SDS011;64044;59.904;10.738;2023-02-07T06:33:17;30.65;;;8.18;;
74293;SDS011;64044;59.904;10.738;2023-02-07T06:35:43;31.65;;;9.50;;
74293;SDS011;64044;59.904;10.738;2023-02-07T06:38:14;54.72;;;9.45;;
74293;SDS011;64044;59.904;10.738;2023-02-07T06:40:41;56.03;;;10.73;;
74293;SDS011;64044;59.904;10.738;2023-02-07T06:43:07;47.13;;;9.65;;
74293;SDS011;64044;59.904;10.738;2023-02-07T06:45:33;30.90;;;9.68;;
74293;SDS011;64044;59.904;10.738;2023-02-07T06:47:59;39.25;;;10.35;;
74293;SDS011;64044;59.904;10.738;2023-02-07T06:50:26;53.13;;;10.00;;
74293;SDS011;64044;59.904;10.738;2023-02-07T06:52:51;43.10;;;10.10;;
74293;SDS011;64044;59.904;10.738;2023-02-07T06:55:17;34.35;;;9.57;;
74293;SDS011;64044;59.904;10.738;2023-02-07T06:57:43;40.17;;;11.07;;
74293;SDS011;64044;59.904;10.738;2023-02-07T07:00:08;43.85;;;11.57;;
74293;SDS011;64044;59.904;10.738;2023-02-07T07:02:34;38.90;;;9.60;;
74293;SDS011;64044;59.904;10.738;2023-02-07T07:05:00;43.47;;;10.20;;
74293;SDS011;64044;59.904;10.738;2023-02-07T07:07:26;98.75;;;11.27;;
74293;SDS011;64044;59.904;10.738;2023-02-07T07:09:52;88.70;;;10.55;;
74293;SDS011;64044;59.904;10.738;2023-02-07T07:12:17;35.25;;;10.10;;
74293;SDS011;64044;59.904;10.738;2023-02-07T07:14:43;53.80;;;10.98;;
74293;SDS011;64044;59.904;10.738;2023-02-07T07:17:09;45.55;;;11.80;;
74293;SDS011;64044;59.904;10.738;2023-02-07T07:19:34;44.15;;;11.68;;
74293;SDS011;64044;59.904;10.738;2023-02-07T07:22:00;28.95;;;10.13;;
74293;SDS011;64044;59.904;10.738;2023-02-07T07:24:26;30.08;;;11.48;;
74293;SDS011;64044;59.904;10.738;2023-02-07T07:26:52;33.65;;;12.35;;
74293;SDS011;64044;59.904;10.738;2023-02-07T07:29:17;30.27;;;11.75;;
74293;SDS011;64044;59.904;10.738;2023-02-07T07:31:44;32.22;;;11.85;;
74293;SDS011;64044;59.904;10.738;2023-02-07T07:34:10;29.80;;;11.32;;
74293;SDS011;64044;59.904;10.738;2023-02-07T07:36:36;28.58;;;11.27;;
74293;SDS011;64044;59.904;10.738;2023-02-07T07:39:02;25.55;;;10.50;;
74293;SDS011;64044;59.904;10.738;2023-02-07T07:41:28;24.85;;;10.38;;
74293;SDS011;64044;59.904;10.738;2023-02-07T07:43:54;32.28;;;11.20;;
74293;SDS011;64044;59.904;10.738;2023-02-07T07:46:20;26.45;;;10.07;;
74293;SDS011;64044;59.904;10.738;2023-02-07T07:48:45;29.25;;;10.48;;
74293;SDS011;64044;59.904;10.738;2023-02-07T07:51:11;26.63;;;10.70;;
74293;SDS011;64044;59.904;10.738;2023-02-07T07:53:37;26.48;;;10.32;;
74293;SDS011;64044;59.904;10.738;2023-02-07T07:56:03;31.98;;;11.30;;
74293;SDS011;64044;59.904;10.738;2023-02-07T07:58:29;29.35;;;11.98;;
74293;SDS011;64044;59.904;10.738;2023-02-07T08:00:54;21.40;;;10.23;;
74293;SDS011;64044;59.904;10.738;2023-02-07T08:03:21;25.60;;;9.75;;
74293;SDS011;64044;59.904;10.738;2023-02-07T08:05:47;27.55;;;11.15;;
74293;SDS011;64044;59.904;10.738;2023-02-07T08:08:14;24.77;;;10.35;;
74293;SDS011;64044;59.904;10.738;2023-02-07T08:10:42;29.05;;;10.07;;
74293;SDS011;64044;59.904;10.738;2023-02-07T08:13:09;25.95;;;11.13;;
74293;SDS011;64044;59.904;10.738;2023-02-07T08:15:35;29.95;;;10.90;;
74293;SDS011;64044;59.904;10.738;2023-02-07T08:18:01;34.85;;;11.25;;
74293;SDS011;64044;59.904;10.738;2023-02-07T08:20:27;30.70;;;11.02;;
74293;SDS011;64044;59.904;10.738;2023-02-07T08:22:53;28.52;;;10.68;;
74293;SDS011;64044;59.904;10.738;2023-02-07T08:25:18;29.73;;;11.57;;
74293;SDS011;64044;59.904;10.738;2023-02-07T08:27:44;30.25;;;10.95;;
74293;SDS011;64044;59.904;10.738;2023-02-07T08:30:11;27.48;;;10.05;;
74293;SDS011;64044;59.904;10.738;2023-02-07T08:32:37;27.25;;;10.57;;
74293;SDS011;64044;59.904;10.738;2023-02-07T08:35:04;30.55;;;11.45;;
74293;SDS011;64044;59.904;10.738;2023-02-07T08:37:39;39.10;;;18.30;;
74293;SDS011;64044;59.904;10.738;2023-02-07T08:40:06;31.70;;;13.77;;
74293;SDS011;64044;59.904;10.738;2023-02-07T08:42:32;36.08;;;13.23;;
74293;SDS011;64044;59.904;10.738;2023-02-07T08:44:58;33.08;;;11.82;;
74293;SDS011;64044;59.904;10.738;2023-02-07T08:47:24;29.25;;;11.13;;
74293;SDS011;64044;59.904;10.738;2023-02-07T08:49:49;30.40;;;11.75;;
74293;SDS011;64044;59.904;10.738;2023-02-07T08:52:15;34.60;;;12.40;;
74293;SDS011;64044;59.904;10.738;2023-02-07T08:54:41;39.72;;;12.35;;
74293;SDS011;64044;59.904;10.738;2023-02-07T08:57:06;34.78;;;11.13;;
74293;SDS011;64044;59.904;10.738;2023-02-07T08:59:32;33.40;;;10.77;;
74293;SDS011;64044;59.904;10.738;2023-02-07T09:01:58;29.35;;;11.65;;
74293;SDS011;64044;59.904;10.738;2023-02-07T09:04:23;33.80;;;12.13;;
74293;SDS011;64044;59.904;10.738;2023-02-07T09:06:50;35.05;;;11.98;;
74293;SDS011;64044;59.904;10.738;2023-02-07T09:09:16;29.13;;;10.68;;
74293;SDS011;64044;59.904;10.738;2023-02-07T09:11:42;24.90;;;9.93;;
74293;SDS011;64044;59.904;10.738;2023-02-07T09:14:08;37.50;;;12.38;;
74293;SDS011;64044;59.904;10.738;2023-02-07T09:16:34;34.30;;;11.25;;
74293;SDS011;64044;59.904;10.738;2023-02-07T09:19:00;36.38;;;13.57;;
74293;SDS011;64044;59.904;10.738;2023-02-07T09:21:26;29.92;;;11.18;;
74293;SDS011;64044;59.904;10.738;2023-02-07T09:23:52;34.35;;;11.82;;
74293;SDS011;64044;59.904;10.738;2023-02-07T09:26:19;29.00;;;11.63;;
74293;SDS011;64044;59.904;10.738;2023-02-07T09:28:46;34.25;;;12.57;;
74293;SDS011;64044;59.904;10.738;2023-02-07T09:31:12;39.95;;;12.52;;
74293;SDS011;64044;59.904;10.738;2023-02-07T09:33:40;38.92;;;12.82;;
74293;SDS011;64044;59.904;10.738;2023-02-07T09:36:22;37.58;;;12.63;;
74293;SDS011;64044;59.904;10.738;2023-02-07T09:38:50;33.05;;;11.85;;
74293;SDS011;64044;59.904;10.738;2023-02-07T09:46:46;33.78;;;11.90;;
74293;SDS011;64044;59.904;10.738;2023-02-07T09:49:32;31.90;;;12.10;;
74293;SDS011;64044;59.904;10.738;2023-02-07T09:52:08;35.50;;;12.23;;
74293;SDS011;64044;59.904;10.738;2023-02-07T09:54:39;27.45;;;10.02;;
74293;SDS011;64044;59.904;10.738;2023-02-07T09:57:10;27.67;;;11.05;;
74293;SDS011;64044;59.904;10.738;2023-02-07T09:59:52;26.30;;;10.10;;
74293;SDS011;64044;59.904;10.738;2023-02-07T10:02:26;27.77;;;10.25;;
74293;SDS011;64044;59.904;10.738;2023-02-07T10:04:54;30.75;;;11.13;;
74293;SDS011;64044;59.904;10.738;2023-02-07T10:07:26;31.13;;;11.02;;
74293;SDS011;64044;59.904;10.738;2023-02-07T10:09:52;25.70;;;10.70;;
74293;SDS011;64044;59.904;10.738;2023-02-07T10:31:04;17.80;;;7.50;;
74293;SDS011;64044;59.904;10.738;2023-02-07T10:33:49;18.65;;;8.55;;
74293;SDS011;64044;59.904;10.738;2023-02-07T10:36:19;19.70;;;8.27;;
74293;SDS011;64044;59.904;10.738;2023-02-07T10:38:55;19.10;;;8.45;;
74293;SDS011;64044;59.904;10.738;2023-02-07T10:41:41;17.92;;;8.52;;
74293;SDS011;64044;59.904;10.738;2023-02-07T10:44:15;18.83;;;8.55;;
74293;SDS011;64044;59.904;10.738;2023-02-07T10:46:43;19.40;;;8.65;;
74293;SDS011;64044;59.904;10.738;2023-02-07T10:49:18;24.77;;;8.48;;
74293;SDS011;64044;59.904;10.738;2023-02-07T10:51:46;22.05;;;7.80;;
74293;SDS011;64044;59.904;10.738;2023-02-07T10:54:16;19.60;;;8.45;;
74293;SDS011;64044;59.904;10.738;2023-02-07T10:56:50;18.95;;;8.02;;
74293;SDS011;64044;59.904;10.738;2023-02-07T11:01:55;18.77;;;7.82;;
74293;SDS011;64044;59.904;10.738;2023-02-07T11:04:22;19.17;;;7.75;;
74293;SDS011;64044;59.904;10.738;2023-02-07T11:07:02;24.13;;;7.78;;
74293;SDS011;64044;59.904;10.738;2023-02-07T11:09:34;18.35;;;8.27;;
74293;SDS011;64044;59.904;10.738;2023-02-07T11:12:11;21.67;;;8.88;;
74293;SDS011;64044;59.904;10.738;2023-02-07T11:14:40;21.33;;;9.23;;
74293;SDS011;64044;59.904;10.738;2023-02-07T11:17:28;21.25;;;8.80;;
74293;SDS011;64044;59.904;10.738;2023-02-07T11:19:54;19.17;;;7.85;;
74293;SDS011;64044;59.904;10.738;2023-02-07T11:22:20;20.92;;;9.00;;
74293;SDS011;64044;59.904;10.738;2023-02-07T11:24:49;19.88;;;8.52;;
74293;SDS011;64044;59.904;10.738;2023-02-07T11:27:18;20.15;;;8.90;;
74293;SDS011;64044;59.904;10.738;2023-02-07T11:29:50;19.50;;;8.40;;
74293;SDS011;64044;59.904;10.738;2023-02-07T11:32:21;21.08;;;8.25;;
74293;SDS011;64044;59.904;10.738;2023-02-07T11:34:56;20.92;;;8.60;;
74293;SDS011;64044;59.904;10.738;2023-02-07T11:37:32;20.98;;;8.98;;
74293;SDS011;64044;59.904;10.738;2023-02-07T11:40:26;18.25;;;7.68;;
74293;SDS011;64044;59.904;10.738;2023-02-07T11:45:33;18.63;;;8.00;;
74293;SDS011;64044;59.904;10.738;2023-02-07T11:48:00;19.60;;;8.15;;
74293;SDS011;64044;59.904;10.738;2023-02-07T11:50:34;18.52;;;7.35;;
74293;SDS011;64044;59.904;10.738;2023-02-07T11:53:14;18.25;;;7.57;;
74293;SDS011;64044;59.904;10.738;2023-02-07T11:56:04;17.50;;;7.53;;
74293;SDS011;64044;59.904;10.738;2023-02-07T12:00:56;20.17;;;8.52;;
74293;SDS011;64044;59.904;10.738;2023-02-07T12:03:23;18.48;;;8.40;;
74293;SDS011;64044;59.904;10.738;2023-02-07T12:05:55;16.52;;;8.05;;
74293;SDS011;64044;59.904;10.738;2023-02-07T12:08:26;20.60;;;8.63;;
74293;SDS011;64044;59.904;10.738;2023-02-07T12:10:55;20.30;;;9.15;;
74293;SDS011;64044;59.904;10.738;2023-02-07T12:13:25;18.45;;;8.40;;
74293;SDS011;64044;59.904;10.738;2023-02-07T12:21:09;18.65;;;9.05;;
74293;SDS011;64044;59.904;10.738;2023-02-07T12:23:45;22.58;;;9.38;;
74293;SDS011;64044;59.904;10.738;2023-02-07T12:26:14;20.70;;;8.65;;
74293;SDS011;64044;59.904;10.738;2023-02-07T12:31:23;21.13;;;9.38;;
74293;SDS011;64044;59.904;10.738;2023-02-07T12:33:57;18.02;;;7.53;;
74293;SDS011;64044;59.904;10.738;2023-02-07T12:36:34;17.73;;;7.95;;
74293;SDS011;64044;59.904;10.738;2023-02-07T12:39:12;16.48;;;7.10;;
74293;SDS011;64044;59.904;10.738;2023-02-07T12:44:39;19.50;;;7.95;;
74293;SDS011;64044;59.904;10.738;2023-02-07T12:47:21;17.48;;;7.85;;
74293;SDS011;64044;59.904;10.738;2023-02-07T12:50:12;23.58;;;8.77;;
74293;SDS011;64044;59.904;10.738;2023-02-07T13:00:57;24.02;;;10.25;;
74293;SDS011;64044;59.904;10.738;2023-02-07T13:06:00;19.73;;;8.50;;
74293;SDS011;64044;59.904;10.738;2023-02-07T13:08:39;31.13;;;10.73;;
74293;SDS011;64044;59.904;10.738;2023-02-07T13:14:08;19.83;;;8.50;;
74293;SDS011;64044;59.904;10.738;2023-02-07T13:25:04;24.58;;;9.63;;
74293;SDS011;64044;59.904;10.738;2023-02-07T13:27:37;20.83;;;9.77;;
74293;SDS011;64044;59.904;10.738;2023-02-07T13:30:05;27.58;;;9.32;;
74293;SDS011;64044;59.904;10.738;2023-02-07T13:32:37;21.80;;;9.68;;
74293;SDS011;64044;59.904;10.738;2023-02-07T13:35:04;26.52;;;9.95;;
74293;SDS011;64044;59.904;10.738;2023-02-07T13:40:35;27.70;;;9.98;;
74293;SDS011;64044;59.904;10.738;2023-02-07T13:46:05;22.13;;;9.82;;
74293;SDS011;64044;59.904;10.738;2023-02-07T13:51:21;21.60;;;9.00;;
74293;SDS011;64044;59.904;10.738;2023-02-07T13:56:34;21.95;;;9.18;;
74293;SDS011;64044;59.904;10.738;2023-02-07T14:02:15;20.08;;;7.97;;
74293;SDS011;64044;59.904;10.738;2023-02-07T14:10:00;18.33;;;7.45;;
74293;SDS011;64044;59.904;10.738;2023-02-07T14:12:28;17.80;;;7.53;;
74293;SDS011;64044;59.904;10.738;2023-02-07T14:23:03;15.40;;;5.80;;
74293;SDS011;64044;59.904;10.738;2023-02-07T14:25:41;13.95;;;6.15;;
74293;SDS011;64044;59.904;10.738;2023-02-07T14:30:57;16.63;;;5.75;;
74293;SDS011;64044;59.904;10.738;2023-02-07T14:33:31;16.00;;;6.80;;
74293;SDS011;64044;59.904;10.738;2023-02-07T14:38:43;13.38;;;6.10;;
74293;SDS011;64044;59.904;10.738;2023-02-07T14:41:28;13.82;;;6.68;;
74293;SDS011;64044;59.904;10.738;2023-02-07T14:43:56;15.18;;;6.95;;
74293;SDS011;64044;59.904;10.738;2023-02-07T14:48:56;15.88;;;6.63;;
74293;SDS011;64044;59.904;10.738;2023-02-07T14:51:35;30.23;;;7.10;;
74293;SDS011;64044;59.904;10.738;2023-02-07T14:54:07;19.50;;;6.60;;
74293;SDS011;64044;59.904;10.738;2023-02-07T14:59:26;13.23;;;6.03;;
74293;SDS011;64044;59.904;10.738;2023-02-07T15:10:38;15.23;;;7.05;;
74293;SDS011;64044;59.904;10.738;2023-02-07T15:13:22;17.85;;;7.28;;
74293;SDS011;64044;59.904;10.738;2023-02-07T15:18:22;15.57;;;6.60;;
74293;SDS011;64044;59.904;10.738;2023-02-07T15:20:51;24.85;;;7.78;;
74293;SDS011;64044;59.904;10.738;2023-02-07T15:23:19;19.50;;;7.53;;
74293;SDS011;64044;59.904;10.738;2023-02-07T15:25:45;15.13;;;6.85;;
74293;SDS011;64044;59.904;10.738;2023-02-07T15:28:30;15.38;;;7.45;;
74293;SDS011;64044;59.904;10.738;2023-02-07T15:31:04;14.45;;;7.07;;
74293;SDS011;64044;59.904;10.738;2023-02-07T15:38:55;28.70;;;8.85;;
74293;SDS011;64044;59.904;10.738;2023-02-07T15:41:21;20.67;;;8.20;;
74293;SDS011;64044;59.904;10.738;2023-02-07T15:44:00;29.08;;;8.77;;
74293;SDS011;64044;59.904;10.738;2023-02-07T15:52:12;22.98;;;9.52;;
74293;SDS011;64044;59.904;10.738;2023-02-07T15:54:58;23.02;;;8.93;;
74293;SDS011;64044;59.904;10.738;2023-02-07T15:57:29;22.50;;;9.88;;
74293;SDS011;64044;59.904;10.738;2023-02-07T16:00:00;26.45;;;10.25;;
74293;SDS011;64044;59.904;10.738;2023-02-07T16:02:35;19.85;;;7.95;;
74293;SDS011;64044;59.904;10.738;2023-02-07T16:05:08;20.70;;;9.18;;
74293;SDS011;64044;59.904;10.738;2023-02-07T16:07:36;22.73;;;8.65;;
74293;SDS011;64044;59.904;10.738;2023-02-07T16:10:39;25.98;;;10.38;;
74293;SDS011;64044;59.904;10.738;2023-02-07T16:15:34;24.33;;;9.70;;
74293;SDS011;64044;59.904;10.738;2023-02-07T16:18:02;24.65;;;9.25;;
74293;SDS011;64044;59.904;10.738;2023-02-07T16:20:29;24.55;;;9.20;;
74293;SDS011;64044;59.904;10.738;2023-02-07T16:22:59;23.05;;;9.60;;
74293;SDS011;64044;59.904;10.738;2023-02-07T16:25:30;29.00;;;10.60;;
74293;SDS011;64044;59.904;10.738;2023-02-07T16:27:58;21.42;;;9.48;;
74293;SDS011;64044;59.904;10.738;2023-02-07T16:30:32;34.10;;;9.63;;
74293;SDS011;64044;59.904;10.738;2023-02-07T16:33:07;34.10;;;9.73;;
74293;SDS011;64044;59.904;10.738;2023-02-07T16:35:36;33.83;;;9.93;;
74293;SDS011;64044;59.904;10.738;2023-02-07T16:38:01;26.05;;;9.38;;
74293;SDS011;64044;59.904;10.738;2023-02-07T16:40:27;29.25;;;10.32;;
74293;SDS011;64044;59.904;10.738;2023-02-07T16:42:53;39.38;;;12.07;;
74293;SDS011;64044;59.904;10.738;2023-02-07T16:45:22;30.85;;;10.27;;
74293;SDS011;64044;59.904;10.738;2023-02-07T16:47:52;36.05;;;9.75;;
74293;SDS011;64044;59.904;10.738;2023-02-07T16:50:19;45.22;;;10.52;;
74293;SDS011;64044;59.904;10.738;2023-02-07T16:52:48;83.45;;;11.15;;
74293;SDS011;64044;59.904;10.738;2023-02-07T16:55:15;63.90;;;11.40;;
74293;SDS011;64044;59.904;10.738;2023-02-07T16:57:43;67.32;;;12.52;;
74293;SDS011;64044;59.904;10.738;2023-02-07T17:00:14;53.20;;;11.07;;
74293;SDS011;64044;59.904;10.738;2023-02-07T17:02:46;68.28;;;11.60;;
74293;SDS011;64044;59.904;10.738;2023-02-07T17:05:14;79.90;;;10.90;;
74293;SDS011;64044;59.904;10.738;2023-02-07T17:07:41;46.63;;;9.43;;
74293;SDS011;64044;59.904;10.738;2023-02-07T17:10:20;75.40;;;10.52;;
74293;SDS011;64044;59.904;10.738;2023-02-07T17:12:51;56.80;;;8.35;;
74293;SDS011;64044;59.904;10.738;2023-02-07T17:15:18;56.25;;;8.07;;
74293;SDS011;64044;59.904;10.738;2023-02-07T17:17:44;63.40;;;8.77;;
74293;SDS011;64044;59.904;10.738;2023-02-07T17:22:56;56.08;;;8.73;;
74293;SDS011;64044;59.904;10.738;2023-02-07T17:25:23;56.50;;;8.23;;